sensor_id;sensor_type;location;lat;lon;timestamp;pressure;altitude;pressure_sealevel;temperature;humidity
20003;BME280;10162;41.600;23.806;2023-05-21T00:04:27;94856.94;;;15.82;79.93
20003;BME280;10162;41.600;23.806;2023-05-21T00:06:54;94879.75;;;15.76;79.95
20003;BME280;10162;41.600;23.806;2023-05-21T00:13:13;94879.28;;;15.79;79.68
20003;BME280;10162;41.600;23.806;2023-05-21T00:15:40;94863.03;;;15.70;80.65
20003;BME280;10162;41.600;23.806;2023-05-21T00:18:05;94861.44;;;15.58;81.12
20003;BME280;10162;41.600;23.806;2023-05-21T00:24:25;94856.47;;;15.50;83.79
20003;BME280;10162;41.600;23.806;2023-05-21T00:26:51;94853.06;;;15.49;81.99
20003;BME280;10162;41.600;23.806;2023-05-21T00:29:19;94867.97;;;15.55;83.49
20003;BME280;10162;41.600;23.806;2023-05-21T00:31:45;94846.53;;;15.40;82.28
20003;BME280;10162;41.600;23.806;2023-05-21T00:34:12;94865.22;;;15.62;81.88
20003;BME280;10162;41.600;23.806;2023-05-21T00:36:38;94847.94;;;15.31;84.96
20003;BME280;10162;41.600;23.806;2023-05-21T00:42:17;94862.03;;;15.37;84.98
20003;BME280;10162;41.600;23.806;2023-05-21T00:44:45;94861.34;;;15.29;85.10
20003;BME280;10162;41.600;23.806;2023-05-21T00:47:12;94854.44;;;15.40;81.97
20003;BME280;10162;41.600;23.806;2023-05-21T00:53:32;94862.13;;;15.30;88.97
20003;BME280;10162;41.600;23.806;2023-05-21T00:56:03;94834.56;;;14.98;89.90
20003;BME280;10162;41.600;23.806;2023-05-21T00:58:29;94841.75;;;15.25;86.75
20003;BME280;10162;41.600;23.806;2023-05-21T01:04:52;94831.88;;;15.32;84.25
20003;BME280;10162;41.600;23.806;2023-05-21T01:07:19;94841.59;;;15.44;84.23
20003;BME280;10162;41.600;23.806;2023-05-21T01:13:40;94842.66;;;15.54;83.05
20003;BME280;10162;41.600;23.806;2023-05-21T01:16:08;94832.22;;;15.48;83.34
20003;BME280;10162;41.600;23.806;2023-05-21T01:18:36;94820.78;;;15.30;84.18
20003;BME280;10162;41.600;23.806;2023-05-21T01:21:07;94813.91;;;15.29;85.11
20003;BME280;10162;41.600;23.806;2023-05-21T01:23:34;94821.81;;;15.41;84.54
20003;BME280;10162;41.600;23.806;2023-05-21T01:26:00;94822.03;;;15.28;83.43
20003;BME280;10162;41.600;23.806;2023-05-21T01:28:27;94827.78;;;15.37;84.29
20003;BME280;10162;41.600;23.806;2023-05-21T01:35:08;94830.84;;;15.57;82.53
20003;BME280;10162;41.600;23.806;2023-05-21T01:37:46;94829.50;;;15.43;82.79
20003;BME280;10162;41.600;23.806;2023-05-21T01:44:08;94806.44;;;15.38;83.03
20003;BME280;10162;41.600;23.806;2023-05-21T01:46:37;94803.59;;;15.40;82.43
20003;BME280;10162;41.600;23.806;2023-05-21T01:52:56;94802.56;;;15.41;83.00
20003;BME280;10162;41.600;23.806;2023-05-21T01:55:23;94805.06;;;15.47;83.24
20003;BME280;10162;41.600;23.806;2023-05-21T01:57:53;94800.53;;;15.31;83.78
20003;BME280;10162;41.600;23.806;2023-05-21T02:00:25;94789.28;;;15.36;83.42
20003;BME280;10162;41.600;23.806;2023-05-21T02:02:55;94784.94;;;15.29;82.72
20003;BME280;10162;41.600;23.806;2023-05-21T02:05:21;94792.97;;;15.11;87.32
20003;BME280;10162;41.600;23.806;2023-05-21T02:07:50;94787.59;;;15.18;84.32
20003;BME280;10162;41.600;23.806;2023-05-21T02:14:11;94798.69;;;15.32;83.41
20003;BME280;10162;41.600;23.806;2023-05-21T02:16:39;94776.16;;;15.01;84.35
20003;BME280;10162;41.600;23.806;2023-05-21T02:22:58;94779.13;;;14.81;86.51
20003;BME280;10162;41.600;23.806;2023-05-21T02:25:26;94780.31;;;14.85;86.65
20003;BME280;10162;41.600;23.806;2023-05-21T02:27:51;94780.53;;;14.83;86.92
20003;BME280;10162;41.600;23.806;2023-05-21T02:34:12;94784.09;;;14.36;92.83
20003;BME280;10162;41.600;23.806;2023-05-21T02:36:39;94771.06;;;14.18;92.34
20003;BME280;10162;41.600;23.806;2023-05-21T02:42:59;94770.44;;;14.45;91.25
20003;BME280;10162;41.600;23.806;2023-05-21T02:45:25;94773.59;;;14.36;91.10
20003;BME280;10162;41.600;23.806;2023-05-21T02:47:51;94776.72;;;14.44;88.55
20003;BME280;10162;41.600;23.806;2023-05-21T02:54:12;94784.16;;;14.59;87.79
20003;BME280;10162;41.600;23.806;2023-05-21T02:56:40;94800.34;;;14.86;86.99
20003;BME280;10162;41.600;23.806;2023-05-21T03:02:14;94789.44;;;14.71;85.54
20003;BME280;10162;41.600;23.806;2023-05-21T03:04:39;94784.06;;;14.66;85.21
20003;BME280;10162;41.600;23.806;2023-05-21T03:07:12;94805.78;;;14.50;90.68
20003;BME280;10162;41.600;23.806;2023-05-21T03:13:32;94781.34;;;14.31;91.55
20003;BME280;10162;41.600;23.806;2023-05-21T03:15:58;94814.50;;;14.73;85.92
20003;BME280;10162;41.600;23.806;2023-05-21T03:18:24;94796.91;;;14.85;85.16
20003;BME280;10162;41.600;23.806;2023-05-21T03:24:45;94801.81;;;14.82;84.89
20003;BME280;10162;41.600;23.806;2023-05-21T03:27:12;94811.19;;;15.13;82.74
20003;BME280;10162;41.600;23.806;2023-05-21T03:33:32;94805.34;;;14.99;82.53
20003;BME280;10162;41.600;23.806;2023-05-21T03:36:03;94811.09;;;14.96;86.02
20003;BME280;10162;41.600;23.806;2023-05-21T03:38:32;94809.25;;;15.08;83.30
20003;BME280;10162;41.600;23.806;2023-05-21T03:44:54;94813.25;;;15.11;85.03
20003;BME280;10162;41.600;23.806;2023-05-21T03:47:49;94811.06;;;15.31;81.64
20003;BME280;10162;41.600;23.806;2023-05-21T03:54:09;94834.50;;;15.44;81.27
20003;BME280;10162;41.600;23.806;2023-05-21T03:56:36;94816.66;;;15.46;80.36
20003;BME280;10162;41.600;23.806;2023-05-21T04:02:55;94824.06;;;15.49;79.27
20003;BME280;10162;41.600;23.806;2023-05-21T04:05:21;94819.38;;;15.63;79.53
20003;BME280;10162;41.600;23.806;2023-05-21T04:07:47;94833.56;;;15.74;80.09
20003;BME280;10162;41.600;23.806;2023-05-21T04:13:40;94819.28;;;15.46;81.72
20003;BME280;10162;41.600;23.806;2023-05-21T04:16:06;94815.63;;;15.47;82.46
20003;BME280;10162;41.600;23.806;2023-05-21T04:18:34;94814.59;;;15.60;79.28
20003;BME280;10162;41.600;23.806;2023-05-21T04:24:55;94832.22;;;15.48;80.25
20003;BME280;10162;41.600;23.806;2023-05-21T04:27:26;94830.41;;;15.25;84.64
20003;BME280;10162;41.600;23.806;2023-05-21T04:33:48;94820.88;;;15.47;80.53
20003;BME280;10162;41.600;23.806;2023-05-21T04:36:15;94827.16;;;15.69;82.75
20003;BME280;10162;41.600;23.806;2023-05-21T04:38:42;94819.13;;;15.76;80.60
20003;BME280;10162;41.600;23.806;2023-05-21T04:45:03;94818.84;;;16.18;78.41
20003;BME280;10162;41.600;23.806;2023-05-21T04:47:33;94828.31;;;16.30;76.70
20003;BME280;10162;41.600;23.806;2023-05-21T04:53:53;94808.44;;;16.39;75.50
20003;BME280;10162;41.600;23.806;2023-05-21T04:56:19;94819.34;;;16.60;74.48
20003;BME280;10162;41.600;23.806;2023-05-21T04:58:46;94812.22;;;16.60;73.50
20003;BME280;10162;41.600;23.806;2023-05-21T05:01:12;94816.69;;;16.60;74.23
20003;BME280;10162;41.600;23.806;2023-05-21T05:03:38;94805.47;;;16.52;74.86
20003;BME280;10162;41.600;23.806;2023-05-21T05:06:05;94795.59;;;16.60;72.05
20003;BME280;10162;41.600;23.806;2023-05-21T05:08:32;94816.84;;;16.86;71.79
20003;BME280;10162;41.600;23.806;2023-05-21T05:14:05;94798.63;;;16.85;73.36
20003;BME280;10162;41.600;23.806;2023-05-21T05:16:31;94785.00;;;16.93;72.75
20003;BME280;10162;41.600;23.806;2023-05-21T05:22:21;94793.81;;;16.99;71.54
20003;BME280;10162;41.600;23.806;2023-05-21T05:24:47;94804.94;;;17.01;73.49
20003;BME280;10162;41.600;23.806;2023-05-21T05:27:13;94810.84;;;17.08;74.41
20003;BME280;10162;41.600;23.806;2023-05-21T05:30:06;94809.88;;;17.14;73.21
20003;BME280;10162;41.600;23.806;2023-05-21T05:32:33;94787.88;;;17.08;73.13
20003;BME280;10162;41.600;23.806;2023-05-21T05:35:00;94802.19;;;17.12;74.08
20003;BME280;10162;41.600;23.806;2023-05-21T05:37:26;94792.94;;;16.93;73.98
20003;BME280;10162;41.600;23.806;2023-05-21T05:43:11;94799.34;;;16.80;73.54
20003;BME280;10162;41.600;23.806;2023-05-21T05:45:37;94795.28;;;16.73;73.32
20003;BME280;10162;41.600;23.806;2023-05-21T05:48:09;94790.06;;;16.78;73.30
20003;BME280;10162;41.600;23.806;2023-05-21T05:54:29;94782.88;;;16.73;73.67
20003;BME280;10162;41.600;23.806;2023-05-21T05:56:55;94805.09;;;16.94;74.69
20003;BME280;10162;41.600;23.806;2023-05-21T06:03:15;94801.19;;;16.80;73.72
20003;BME280;10162;41.600;23.806;2023-05-21T06:05:42;94798.31;;;16.65;74.07
20003;BME280;10162;41.600;23.806;2023-05-21T06:08:09;94808.78;;;16.76;72.96
20003;BME280;10162;41.600;23.806;2023-05-21T06:10:44;94813.25;;;16.92;73.89
20003;BME280;10162;41.600;23.806;2023-05-21T06:13:10;94803.91;;;16.85;73.96
20003;BME280;10162;41.600;23.806;2023-05-21T06:15:36;94791.69;;;16.62;74.26
20003;BME280;10162;41.600;23.806;2023-05-21T06:18:07;94815.59;;;16.72;73.41
20003;BME280;10162;41.600;23.806;2023-05-21T06:20:33;94793.91;;;16.70;75.66
20003;BME280;10162;41.600;23.806;2023-05-21T06:22:59;94791.97;;;16.66;75.21
20003;BME280;10162;41.600;23.806;2023-05-21T06:25:25;94812.16;;;16.72;74.56
20003;BME280;10162;41.600;23.806;2023-05-21T06:27:52;94791.22;;;16.53;74.16
20003;BME280;10162;41.600;23.806;2023-05-21T06:30:23;94795.41;;;16.49;77.92
20003;BME280;10162;41.600;23.806;2023-05-21T06:32:48;94805.81;;;16.89;67.31
20003;BME280;10162;41.600;23.806;2023-05-21T06:35:14;94787.56;;;17.26;60.52
20003;BME280;10162;41.600;23.806;2023-05-21T06:37:40;94797.88;;;17.45;63.98
20003;BME280;10162;41.600;23.806;2023-05-21T06:40:08;94796.00;;;17.62;68.35
20003;BME280;10162;41.600;23.806;2023-05-21T06:42:35;94787.19;;;17.56;73.14
20003;BME280;10162;41.600;23.806;2023-05-21T06:45:19;94803.28;;;17.55;76.43
20003;BME280;10162;41.600;23.806;2023-05-21T06:47:45;94785.44;;;17.23;80.14
20003;BME280;10162;41.600;23.806;2023-05-21T06:50:33;94794.00;;;17.30;78.20
20003;BME280;10162;41.600;23.806;2023-05-21T06:53:00;94794.50;;;17.11;80.00
20003;BME280;10162;41.600;23.806;2023-05-21T06:55:27;94788.78;;;16.80;86.02
20003;BME280;10162;41.600;23.806;2023-05-21T06:58:10;94786.94;;;16.81;85.22
20003;BME280;10162;41.600;23.806;2023-05-21T07:00:39;94771.88;;;16.98;76.09
20003;BME280;10162;41.600;23.806;2023-05-21T07:03:05;94759.19;;;16.62;86.86
20003;BME280;10162;41.600;23.806;2023-05-21T07:05:31;94785.28;;;16.91;77.74
20003;BME280;10162;41.600;23.806;2023-05-21T07:07:57;94766.44;;;16.88;83.97
20003;BME280;10162;41.600;23.806;2023-05-21T07:10:28;94783.25;;;16.65;88.09
20003;BME280;10162;41.600;23.806;2023-05-21T07:12:54;94788.38;;;16.88;70.29
20003;BME280;10162;41.600;23.806;2023-05-21T07:15:19;94773.72;;;17.14;65.46
20003;BME280;10162;41.600;23.806;2023-05-21T07:17:45;94803.66;;;17.42;60.35
20003;BME280;10162;41.600;23.806;2023-05-21T07:20:12;94789.41;;;17.26;60.05
20003;BME280;10162;41.600;23.806;2023-05-21T07:22:42;94771.44;;;17.23;61.89
20003;BME280;10162;41.600;23.806;2023-05-21T07:25:09;94784.34;;;17.19;65.13
20003;BME280;10162;41.600;23.806;2023-05-21T07:27:36;94792.41;;;17.29;60.78
20003;BME280;10162;41.600;23.806;2023-05-21T07:30:15;94794.34;;;17.39;59.73
20003;BME280;10162;41.600;23.806;2023-05-21T07:32:45;94792.13;;;17.69;56.87
20003;BME280;10162;41.600;23.806;2023-05-21T07:35:10;94792.94;;;17.70;57.45
20003;BME280;10162;41.600;23.806;2023-05-21T07:37:36;94797.44;;;17.96;53.55
20003;BME280;10162;41.600;23.806;2023-05-21T07:40:10;94798.94;;;17.87;52.43
20003;BME280;10162;41.600;23.806;2023-05-21T07:42:36;94797.56;;;18.06;53.05
20003;BME280;10162;41.600;23.806;2023-05-21T07:45:02;94799.44;;;17.84;55.04
20003;BME280;10162;41.600;23.806;2023-05-21T07:47:33;94797.69;;;17.95;53.35
20003;BME280;10162;41.600;23.806;2023-05-21T07:50:01;94803.41;;;17.60;56.16
20003;BME280;10162;41.600;23.806;2023-05-21T07:52:28;94822.00;;;17.92;56.32
20003;BME280;10162;41.600;23.806;2023-05-21T07:54:54;94804.91;;;17.77;57.44
20003;BME280;10162;41.600;23.806;2023-05-21T07:57:21;94827.19;;;17.82;55.99
20003;BME280;10162;41.600;23.806;2023-05-21T07:59:58;94829.44;;;17.73;54.40
20003;BME280;10162;41.600;23.806;2023-05-21T08:02:28;94798.56;;;17.79;53.07
20003;BME280;10162;41.600;23.806;2023-05-21T08:04:54;94809.06;;;17.52;53.05
20003;BME280;10162;41.600;23.806;2023-05-21T08:07:20;94827.84;;;17.94;53.57
20003;BME280;10162;41.600;23.806;2023-05-21T08:09:55;94797.41;;;17.91;54.56
20003;BME280;10162;41.600;23.806;2023-05-21T08:12:22;94797.34;;;17.86;54.73
20003;BME280;10162;41.600;23.806;2023-05-21T08:14:48;94782.81;;;17.89;56.10
20003;BME280;10162;41.600;23.806;2023-05-21T08:17:15;94802.56;;;18.03;54.87
20003;BME280;10162;41.600;23.806;2023-05-21T08:19:43;94791.16;;;17.75;54.83
20003;BME280;10162;41.600;23.806;2023-05-21T08:22:09;94810.75;;;17.80;52.93
20003;BME280;10162;41.600;23.806;2023-05-21T08:24:37;94810.75;;;17.80;54.41
20003;BME280;10162;41.600;23.806;2023-05-21T08:27:03;94821.63;;;17.83;55.07
20003;BME280;10162;41.600;23.806;2023-05-21T08:29:31;94821.72;;;17.88;54.02
20003;BME280;10162;41.600;23.806;2023-05-21T08:31:58;94820.34;;;17.86;53.32
20003;BME280;10162;41.600;23.806;2023-05-21T08:34:30;94824.72;;;17.75;54.95
20003;BME280;10162;41.600;23.806;2023-05-21T08:37:20;94825.22;;;17.55;57.18
20003;BME280;10162;41.600;23.806;2023-05-21T08:40:44;94840.75;;;17.30;57.49
20003;BME280;10162;41.600;23.806;2023-05-21T08:43:11;94829.41;;;17.51;55.47
20003;BME280;10162;41.600;23.806;2023-05-21T08:45:44;94849.50;;;17.69;54.66
20003;BME280;10162;41.600;23.806;2023-05-21T08:48:15;94830.13;;;17.63;52.82
20003;BME280;10162;41.600;23.806;2023-05-21T08:50:45;94830.38;;;17.62;55.01
20003;BME280;10162;41.600;23.806;2023-05-21T08:53:16;94834.97;;;17.71;52.84
20003;BME280;10162;41.600;23.806;2023-05-21T08:55:41;94828.53;;;17.62;53.58
20003;BME280;10162;41.600;23.806;2023-05-21T08:58:08;94830.22;;;17.52;57.24
20003;BME280;10162;41.600;23.806;2023-05-21T09:00:44;94838.28;;;17.62;58.74
20003;BME280;10162;41.600;23.806;2023-05-21T09:03:11;94848.63;;;17.63;57.65
20003;BME280;10162;41.600;23.806;2023-05-21T09:05:40;94849.94;;;17.27;64.22
20003;BME280;10162;41.600;23.806;2023-05-21T09:08:43;94848.00;;;16.84;74.41
20003;BME280;10162;41.600;23.806;2023-05-21T09:11:25;94829.44;;;16.63;76.14
20003;BME280;10162;41.600;23.806;2023-05-21T09:13:56;94847.50;;;16.71;78.24
20003;BME280;10162;41.600;23.806;2023-05-21T09:16:31;94849.03;;;16.38;80.86
20003;BME280;10162;41.600;23.806;2023-05-21T09:18:57;94842.94;;;16.38;80.62
20003;BME280;10162;41.600;23.806;2023-05-21T09:21:30;94851.38;;;16.51;81.25
20003;BME280;10162;41.600;23.806;2023-05-21T09:24:08;94842.91;;;16.49;81.80
20003;BME280;10162;41.600;23.806;2023-05-21T09:26:37;94859.34;;;16.68;81.57
20003;BME280;10162;41.600;23.806;2023-05-21T09:29:13;94856.66;;;16.51;84.25
20003;BME280;10162;41.600;23.806;2023-05-21T09:31:42;94853.44;;;16.49;84.33
20003;BME280;10162;41.600;23.806;2023-05-21T09:34:10;94851.63;;;15.93;86.64
20003;BME280;10162;41.600;23.806;2023-05-21T09:36:39;94859.75;;;15.92;85.72
20003;BME280;10162;41.600;23.806;2023-05-21T09:39:09;94865.53;;;16.45;79.63
20003;BME280;10162;41.600;23.806;2023-05-21T09:41:41;94867.22;;;16.23;82.17
20003;BME280;10162;41.600;23.806;2023-05-21T09:44:09;94868.25;;;16.50;74.07
20003;BME280;10162;41.600;23.806;2023-05-21T09:46:39;94875.81;;;16.92;68.23
20003;BME280;10162;41.600;23.806;2023-05-21T09:49:23;94841.91;;;16.84;66.49
20003;BME280;10162;41.600;23.806;2023-05-21T09:51:58;94838.38;;;16.95;62.99
20003;BME280;10162;41.600;23.806;2023-05-21T09:54:33;94831.25;;;17.12;62.29
20003;BME280;10162;41.600;23.806;2023-05-21T09:57:00;94851.19;;;17.20;60.93
20003;BME280;10162;41.600;23.806;2023-05-21T09:59:49;94853.25;;;17.18;63.35
20003;BME280;10162;41.600;23.806;2023-05-21T10:02:20;94860.75;;;17.43;61.56
20003;BME280;10162;41.600;23.806;2023-05-21T10:04:49;94864.91;;;17.39;63.44
20003;BME280;10162;41.600;23.806;2023-05-21T10:07:18;94846.78;;;17.25;61.44
20003;BME280;10162;41.600;23.806;2023-05-21T10:12:59;94853.56;;;17.21;63.92
20003;BME280;10162;41.600;23.806;2023-05-21T10:15:27;94841.09;;;17.00;66.16
20003;BME280;10162;41.600;23.806;2023-05-21T10:17:55;94847.25;;;17.06;66.78
20003;BME280;10162;41.600;23.806;2023-05-21T10:23:56;94865.03;;;16.93;68.66
20003;BME280;10162;41.600;23.806;2023-05-21T10:26:23;94849.66;;;17.07;67.93
20003;BME280;10162;41.600;23.806;2023-05-21T10:28:54;94856.84;;;17.28;68.57
20003;BME280;10162;41.600;23.806;2023-05-21T10:31:21;94849.56;;;17.35;69.64
20003;BME280;10162;41.600;23.806;2023-05-21T10:33:47;94833.06;;;17.28;70.77
20003;BME280;10162;41.600;23.806;2023-05-21T10:36:15;94830.75;;;17.15;73.23
20003;BME280;10162;41.600;23.806;2023-05-21T10:38:43;94823.38;;;17.34;73.95
20003;BME280;10162;41.600;23.806;2023-05-21T10:41:26;94827.22;;;17.26;77.14
20003;BME280;10162;41.600;23.806;2023-05-21T10:44:14;94844.63;;;17.61;76.91
20003;BME280;10162;41.600;23.806;2023-05-21T10:58:04;94833.88;;;18.11;74.01
20003;BME280;10162;41.600;23.806;2023-05-21T11:00:38;94814.13;;;17.97;75.11
20003;BME280;10162;41.600;23.806;2023-05-21T11:03:05;94814.41;;;18.00;74.27
20003;BME280;10162;41.600;23.806;2023-05-21T11:05:50;94835.09;;;18.03;74.31
20003;BME280;10162;41.600;23.806;2023-05-21T11:08:27;94816.34;;;17.83;73.19
20003;BME280;10162;41.600;23.806;2023-05-21T11:10:58;94824.16;;;17.73;73.94
20003;BME280;10162;41.600;23.806;2023-05-21T11:13:28;94815.00;;;17.81;73.31
20003;BME280;10162;41.600;23.806;2023-05-21T11:21:13;94832.69;;;18.02;68.63
20003;BME280;10162;41.600;23.806;2023-05-21T11:23:59;94822.63;;;17.99;73.61
